sensor_id;sensor_type;location;lat;lon;timestamp;pressure;altitude;pressure_sealevel;temperature;humidity
56334;BME280;42240;53.626;55.886;2023-05-24T00:00:53;76473.75;;;-145.10;96.58
56334;BME280;42240;53.626;55.886;2023-05-24T00:02:27;76481.66;;;-145.10;98.52
56334;BME280;42240;53.626;55.886;2023-05-24T00:04:01;76493.53;;;-145.10;98.58
56334;BME280;42240;53.626;55.886;2023-05-24T00:05:36;76493.53;;;-145.10;98.58
56334;BME280;42240;53.626;55.886;2023-05-24T00:07:10;76499.47;;;-145.10;99.08
56334;BME280;42240;53.626;55.886;2023-05-24T00:08:44;76523.19;;;-145.10;99.63
56334;BME280;42240;53.626;55.886;2023-05-24T00:10:17;76493.53;;;-145.10;98.73
56334;BME280;42240;53.626;55.886;2023-05-24T00:11:51;76499.47;;;-145.10;100.00
56334;BME280;42240;53.626;55.886;2023-05-24T00:13:25;76519.22;;;-145.10;100.00
56334;BME280;42240;53.626;55.886;2023-05-24T00:14:59;76521.22;;;-145.10;100.00
56334;BME280;42240;53.626;55.886;2023-05-24T00:16:36;76521.22;;;-145.10;100.00
56334;BME280;42240;53.626;55.886;2023-05-24T00:18:10;76521.22;;;-145.10;100.00
56334;BME280;42240;53.626;55.886;2023-05-24T00:19:43;76517.25;;;-145.10;100.00
56334;BME280;42240;53.626;55.886;2023-05-24T00:21:17;76505.38;;;-145.10;100.00
56334;BME280;42240;53.626;55.886;2023-05-24T00:22:51;76517.25;;;-145.10;100.00
56334;BME280;42240;53.626;55.886;2023-05-24T00:24:23;76517.25;;;-145.10;100.00
56334;BME280;42240;53.626;55.886;2023-05-24T00:25:57;76537.03;;;-145.10;100.00
56334;BME280;42240;53.626;55.886;2023-05-24T00:27:31;76544.94;;;-145.10;100.00
56334;BME280;42240;53.626;55.886;2023-05-24T00:29:05;76537.03;;;-145.10;100.00
56334;BME280;42240;53.626;55.886;2023-05-24T00:30:38;76556.81;;;-145.10;100.00
56334;BME280;42240;53.626;55.886;2023-05-24T00:32:13;76542.97;;;-145.10;100.00
56334;BME280;42240;53.626;55.886;2023-05-24T00:33:47;76529.13;;;-145.10;100.00
56334;BME280;42240;53.626;55.886;2023-05-24T00:35:23;76521.22;;;-145.10;100.00
56334;BME280;42240;53.626;55.886;2023-05-24T00:36:58;76523.19;;;-145.10;100.00
56334;BME280;42240;53.626;55.886;2023-05-24T00:38:32;76501.44;;;-145.10;100.00
56334;BME280;42240;53.626;55.886;2023-05-24T00:40:06;76493.53;;;-145.10;100.00
56334;BME280;42240;53.626;55.886;2023-05-24T00:41:40;76485.63;;;-145.10;100.00
56334;BME280;42240;53.626;55.886;2023-05-24T00:43:14;76485.63;;;-145.10;100.00
56334;BME280;42240;53.626;55.886;2023-05-24T00:44:47;76471.78;;;-145.10;100.00
56334;BME280;42240;53.626;55.886;2023-05-24T00:46:27;76422.34;;;-145.10;100.00
56334;BME280;42240;53.626;55.886;2023-05-24T00:48:01;76359.06;;;-145.10;100.00
56334;BME280;42240;53.626;55.886;2023-05-24T00:49:34;76319.53;;;-145.10;100.00
56334;BME280;42240;53.626;55.886;2023-05-24T00:51:09;76289.88;;;-145.10;100.00
56334;BME280;42240;53.626;55.886;2023-05-24T00:52:44;76264.16;;;-145.10;96.99
56334;BME280;42240;53.626;55.886;2023-05-24T00:54:19;76260.22;;;-145.10;97.14
56334;BME280;42240;53.626;55.886;2023-05-24T00:55:54;76234.50;;;-145.10;94.00
56334;BME280;42240;53.626;55.886;2023-05-24T00:57:27;76204.84;;;-145.10;90.00
56334;BME280;42240;53.626;55.886;2023-05-24T00:59:01;76151.47;;;-145.10;87.99
56334;BME280;42240;53.626;55.886;2023-05-24T01:00:35;76113.91;;;-145.10;86.64
56334;BME280;42240;53.626;55.886;2023-05-24T01:02:09;76080.28;;;-145.10;83.73
56334;BME280;42240;53.626;55.886;2023-05-24T01:03:45;76020.97;;;-145.10;81.62
56334;BME280;42240;53.626;55.886;2023-05-24T01:05:19;75993.28;;;-145.10;78.21
56334;BME280;42240;53.626;55.886;2023-05-24T01:07:17;75943.88;;;-145.10;74.92
56334;BME280;42240;53.626;55.886;2023-05-24T01:09:06;75900.38;;;-145.10;73.87
56334;BME280;42240;53.626;55.886;2023-05-24T01:10:54;75852.91;;;-145.10;71.59
56334;BME280;42240;53.626;55.886;2023-05-24T01:12:58;75809.41;;;-145.10;66.95
56334;BME280;42240;53.626;55.886;2023-05-24T01:16:14;75750.13;;;-145.10;63.40
56334;BME280;42240;53.626;55.886;2023-05-24T01:18:16;75667.06;;;-145.10;61.17
56334;BME280;42240;53.626;55.886;2023-05-24T01:20:03;75663.13;;;-145.10;58.93
56334;BME280;42240;53.626;55.886;2023-05-24T01:23:51;75597.88;;;-145.10;56.00
56334;BME280;42240;53.626;55.886;2023-05-24T01:25:48;75591.97;;;-145.10;55.75
56334;BME280;42240;53.626;55.886;2023-05-24T01:27:26;75591.97;;;-145.10;55.30
56334;BME280;42240;53.626;55.886;2023-05-24T01:29:02;75538.59;;;-145.10;54.45
56334;BME280;42240;53.626;55.886;2023-05-24T01:30:39;75524.75;;;-145.10;54.16
56334;BME280;42240;53.626;55.886;2023-05-24T01:32:14;75477.28;;;-145.10;52.46
56334;BME280;42240;53.626;55.886;2023-05-24T01:33:48;75465.44;;;-145.10;50.81
56334;BME280;42240;53.626;55.886;2023-05-24T01:35:24;75419.97;;;-145.10;49.76
56334;BME280;42240;53.626;55.886;2023-05-24T01:36:57;75398.22;;;-145.10;48.90
56334;BME280;42240;53.626;55.886;2023-05-24T01:38:31;75348.81;;;-145.10;48.19
56334;BME280;42240;53.626;55.886;2023-05-24T01:40:05;75356.72;;;-145.10;47.53
56334;BME280;42240;53.626;55.886;2023-05-24T01:43:47;75212.41;;;-145.10;44.64
56334;BME280;42240;53.626;55.886;2023-05-24T01:49:49;75058.22;;;-145.10;42.88
56334;BME280;42240;53.626;55.886;2023-05-24T01:51:25;75030.56;;;-145.10;42.65
56334;BME280;42240;53.626;55.886;2023-05-24T01:53:08;74977.19;;;-145.10;41.72
56334;BME280;42240;53.626;55.886;2023-05-24T01:54:44;74947.53;;;-145.10;41.26
56334;BME280;42240;53.626;55.886;2023-05-24T01:56:20;74951.50;;;-145.10;40.91
56334;BME280;42240;53.626;55.886;2023-05-24T01:58:01;74943.59;;;-145.10;41.22
56334;BME280;42240;53.626;55.886;2023-05-24T01:59:35;74919.88;;;-145.10;40.66
56334;BME280;42240;53.626;55.886;2023-05-24T02:01:10;74915.91;;;-145.10;40.21
56334;BME280;42240;53.626;55.886;2023-05-24T02:02:46;74943.59;;;-145.10;39.96
56334;BME280;42240;53.626;55.886;2023-05-24T02:04:22;74955.44;;;-145.10;39.61
56334;BME280;42240;53.626;55.886;2023-05-24T02:05:56;75002.88;;;-145.10;40.00
56334;BME280;42240;53.626;55.886;2023-05-24T02:07:30;75020.66;;;-145.10;40.75
56334;BME280;42240;53.626;55.886;2023-05-24T02:09:03;74923.81;;;-145.10;41.21
56334;BME280;42240;53.626;55.886;2023-05-24T02:10:38;74864.53;;;-145.10;41.05
56334;BME280;42240;53.626;55.886;2023-05-24T02:12:12;74896.16;;;-145.10;39.87
56334;BME280;42240;53.626;55.886;2023-05-24T02:13:45;74975.22;;;-145.10;41.11
56334;BME280;42240;53.626;55.886;2023-05-24T02:15:19;74900.09;;;-145.10;40.10
56334;BME280;42240;53.626;55.886;2023-05-24T02:16:52;74846.72;;;-145.10;40.52
56334;BME280;42240;53.626;55.886;2023-05-24T02:18:31;74927.78;;;-145.10;40.79
56334;BME280;42240;53.626;55.886;2023-05-24T02:20:07;74929.75;;;-145.10;41.66
56334;BME280;42240;53.626;55.886;2023-05-24T02:21:41;74923.81;;;-145.10;40.96
56334;BME280;42240;53.626;55.886;2023-05-24T02:23:15;74828.94;;;-145.10;40.26
56334;BME280;42240;53.626;55.886;2023-05-24T02:24:49;74761.75;;;-145.10;39.52
56334;BME280;42240;53.626;55.886;2023-05-24T02:26:23;74734.06;;;-145.10;39.63
56334;BME280;42240;53.626;55.886;2023-05-24T02:27:57;74704.44;;;-145.10;37.62
56334;BME280;42240;53.626;55.886;2023-05-24T02:29:31;74662.91;;;-145.10;37.42
56334;BME280;42240;53.626;55.886;2023-05-24T02:31:04;74611.53;;;-145.10;36.59
56334;BME280;42240;53.626;55.886;2023-05-24T02:32:38;74587.81;;;-145.10;37.04
56334;BME280;42240;53.626;55.886;2023-05-24T02:34:13;74577.94;;;-145.10;36.43
56334;BME280;42240;53.626;55.886;2023-05-24T02:35:46;74568.06;;;-145.10;34.76
56334;BME280;42240;53.626;55.886;2023-05-24T02:37:20;74741.97;;;-145.10;35.26
56334;BME280;42240;53.626;55.886;2023-05-24T02:38:53;74682.69;;;-145.10;35.40
56334;BME280;42240;53.626;55.886;2023-05-24T02:40:27;74698.50;;;-145.10;35.26
56334;BME280;42240;53.626;55.886;2023-05-24T02:42:00;74660.94;;;-145.10;33.47
56334;BME280;42240;53.626;55.886;2023-05-24T02:43:36;74607.59;;;-145.10;33.34
56334;BME280;42240;53.626;55.886;2023-05-24T02:45:10;74536.44;;;-145.10;32.80
56334;BME280;42240;53.626;55.886;2023-05-24T02:46:44;74568.06;;;-145.10;31.89
56334;BME280;42240;53.626;55.886;2023-05-24T02:48:18;74560.16;;;-145.10;31.76
56334;BME280;42240;53.626;55.886;2023-05-24T02:49:52;74516.66;;;-145.10;31.48
56334;BME280;42240;53.626;55.886;2023-05-24T02:51:26;74532.47;;;-145.10;31.85
56334;BME280;42240;53.626;55.886;2023-05-24T02:52:59;74548.28;;;-145.10;31.01
56334;BME280;42240;53.626;55.886;2023-05-24T02:54:33;74532.47;;;-145.10;30.96
56334;BME280;42240;53.626;55.886;2023-05-24T02:56:08;74512.72;;;-145.10;30.86
56334;BME280;42240;53.626;55.886;2023-05-24T02:57:42;74461.31;;;-145.10;30.66
56334;BME280;42240;53.626;55.886;2023-05-24T02:59:16;74512.72;;;-145.10;31.01
56334;BME280;42240;53.626;55.886;2023-05-24T03:00:50;74465.28;;;-145.10;30.15
56334;BME280;42240;53.626;55.886;2023-05-24T03:02:25;74534.44;;;-145.10;30.50
56334;BME280;42240;53.626;55.886;2023-05-24T03:04:01;74461.31;;;-145.10;31.01
56334;BME280;42240;53.626;55.886;2023-05-24T03:05:35;74400.06;;;-145.10;31.44
56334;BME280;42240;53.626;55.886;2023-05-24T03:07:09;74338.78;;;-145.10;30.68
56334;BME280;42240;53.626;55.886;2023-05-24T03:08:42;74255.78;;;-145.10;30.48
56334;BME280;42240;53.626;55.886;2023-05-24T03:10:17;74206.38;;;-145.10;29.55
56334;BME280;42240;53.626;55.886;2023-05-24T03:11:51;74226.16;;;-145.10;30.22
56334;BME280;42240;53.626;55.886;2023-05-24T03:13:27;74200.47;;;-145.10;29.43
56334;BME280;42240;53.626;55.886;2023-05-24T03:15:01;74188.59;;;-145.10;29.99
56334;BME280;42240;53.626;55.886;2023-05-24T03:16:36;74364.50;;;-145.10;29.16
56334;BME280;42240;53.626;55.886;2023-05-24T03:18:09;74449.47;;;-145.10;29.68
56334;BME280;42240;53.626;55.886;2023-05-24T03:19:45;74469.22;;;-145.10;30.58
56334;BME280;42240;53.626;55.886;2023-05-24T03:21:18;74321.00;;;-145.10;30.30
56334;BME280;42240;53.626;55.886;2023-05-24T03:22:52;74324.97;;;-145.10;29.64
56334;BME280;42240;53.626;55.886;2023-05-24T03:24:26;74271.59;;;-145.10;29.64
56334;BME280;42240;53.626;55.886;2023-05-24T03:26:00;74247.88;;;-145.10;29.01
56334;BME280;42240;53.626;55.886;2023-05-24T03:27:34;74340.78;;;-145.10;29.43
56334;BME280;42240;53.626;55.886;2023-05-24T03:29:08;74247.88;;;-145.10;29.55
56334;BME280;42240;53.626;55.886;2023-05-24T03:30:45;74153.03;;;-145.10;28.98
56334;BME280;42240;53.626;55.886;2023-05-24T03:32:19;74079.91;;;-145.10;28.65
56334;BME280;42240;53.626;55.886;2023-05-24T03:33:53;74214.28;;;-145.10;29.25
56334;BME280;42240;53.626;55.886;2023-05-24T03:35:27;74289.38;;;-145.10;29.52
56334;BME280;42240;53.626;55.886;2023-05-24T03:37:01;74184.66;;;-145.10;29.06
56334;BME280;42240;53.626;55.886;2023-05-24T03:38:34;74188.59;;;-145.10;28.84
56334;BME280;42240;53.626;55.886;2023-05-24T03:40:07;74147.09;;;-145.10;29.11
56334;BME280;42240;53.626;55.886;2023-05-24T03:41:58;74062.13;;;-145.10;29.06
56334;BME280;42240;53.626;55.886;2023-05-24T03:43:32;74006.78;;;-145.10;28.91
56334;BME280;42240;53.626;55.886;2023-05-24T03:45:08;74105.59;;;-145.10;28.30
56334;BME280;42240;53.626;55.886;2023-05-24T03:46:43;74149.06;;;-145.10;28.34
56334;BME280;42240;53.626;55.886;2023-05-24T03:48:16;74036.44;;;-145.10;28.02
56334;BME280;42240;53.626;55.886;2023-05-24T03:49:54;74014.69;;;-145.10;28.20
56334;BME280;42240;53.626;55.886;2023-05-24T03:51:28;73947.50;;;-145.10;27.78
56334;BME280;42240;53.626;55.886;2023-05-24T03:53:01;73959.38;;;-145.10;27.99
56334;BME280;42240;53.626;55.886;2023-05-24T03:54:34;74002.84;;;-145.10;27.83
56334;BME280;42240;53.626;55.886;2023-05-24T03:56:09;73975.19;;;-145.10;27.84
56334;BME280;42240;53.626;55.886;2023-05-24T03:57:43;73872.41;;;-145.10;27.27
56334;BME280;42240;53.626;55.886;2023-05-24T03:59:16;73892.19;;;-145.10;26.91
56334;BME280;42240;53.626;55.886;2023-05-24T04:00:50;73896.13;;;-145.10;26.82
56334;BME280;42240;53.626;55.886;2023-05-24T04:02:23;73900.09;;;-145.10;26.48
56334;BME280;42240;53.626;55.886;2023-05-24T04:03:58;73994.94;;;-145.10;26.94
56334;BME280;42240;53.626;55.886;2023-05-24T04:05:32;73886.25;;;-145.10;27.42
56334;BME280;42240;53.626;55.886;2023-05-24T04:07:05;73941.59;;;-145.10;26.76
56334;BME280;42240;53.626;55.886;2023-05-24T04:08:39;73884.28;;;-145.10;26.34
56334;BME280;42240;53.626;55.886;2023-05-24T04:10:14;73797.34;;;-145.10;26.64
56334;BME280;42240;53.626;55.886;2023-05-24T04:11:47;73781.53;;;-145.10;26.43
56334;BME280;42240;53.626;55.886;2023-05-24T04:13:21;73773.63;;;-145.10;26.24
56334;BME280;42240;53.626;55.886;2023-05-24T04:14:54;73779.53;;;-145.10;26.62
56334;BME280;42240;53.626;55.886;2023-05-24T04:16:28;73708.41;;;-145.10;26.57
56334;BME280;42240;53.626;55.886;2023-05-24T04:18:01;73694.59;;;-145.10;26.37
56334;BME280;42240;53.626;55.886;2023-05-24T04:19:35;73686.69;;;-145.10;25.86
56334;BME280;42240;53.626;55.886;2023-05-24T04:21:10;73676.78;;;-145.10;26.28
56334;BME280;42240;53.626;55.886;2023-05-24T04:22:43;73698.53;;;-145.10;26.37
56334;BME280;42240;53.626;55.886;2023-05-24T04:24:17;73666.91;;;-145.10;26.72
56334;BME280;42240;53.626;55.886;2023-05-24T04:25:50;73659.00;;;-145.10;26.64
56334;BME280;42240;53.626;55.886;2023-05-24T04:27:24;73578.00;;;-145.10;26.67
56334;BME280;42240;53.626;55.886;2023-05-24T04:28:58;73576.03;;;-145.10;25.68
56334;BME280;42240;53.626;55.886;2023-05-24T04:30:33;73562.19;;;-145.10;26.07
56334;BME280;42240;53.626;55.886;2023-05-24T04:32:08;73562.19;;;-145.10;25.80
56334;BME280;42240;53.626;55.886;2023-05-24T04:33:42;73710.38;;;-145.10;25.31
56334;BME280;42240;53.626;55.886;2023-05-24T04:35:15;73773.63;;;-145.10;25.96
56334;BME280;42240;53.626;55.886;2023-05-24T04:36:49;73670.88;;;-145.10;26.52
56334;BME280;42240;53.626;55.886;2023-05-24T04:38:24;73639.25;;;-145.10;24.96
56334;BME280;42240;53.626;55.886;2023-05-24T04:39:57;73751.88;;;-145.10;25.04
56334;BME280;42240;53.626;55.886;2023-05-24T04:41:31;73666.91;;;-145.10;25.53
56334;BME280;42240;53.626;55.886;2023-05-24T04:43:07;73649.13;;;-145.10;25.02
56334;BME280;42240;53.626;55.886;2023-05-24T04:44:42;73698.53;;;-145.10;25.19
56334;BME280;42240;53.626;55.886;2023-05-24T04:46:16;73625.41;;;-145.10;25.14
56334;BME280;42240;53.626;55.886;2023-05-24T04:47:50;73718.28;;;-145.10;25.74
56334;BME280;42240;53.626;55.886;2023-05-24T04:49:23;73631.34;;;-145.10;25.27
56334;BME280;42240;53.626;55.886;2023-05-24T04:50:57;73795.34;;;-145.10;24.69
56334;BME280;42240;53.626;55.886;2023-05-24T04:52:31;73670.88;;;-145.10;24.63
56334;BME280;42240;53.626;55.886;2023-05-24T04:54:05;73702.47;;;-145.10;24.50
56334;BME280;42240;53.626;55.886;2023-05-24T04:55:41;73734.09;;;-145.10;24.39
56334;BME280;42240;53.626;55.886;2023-05-24T04:57:15;73821.03;;;-145.10;24.83
56334;BME280;42240;53.626;55.886;2023-05-24T04:58:48;73931.69;;;-145.10;25.68
56334;BME280;42240;53.626;55.886;2023-05-24T05:00:22;73836.84;;;-145.10;25.67
56334;BME280;42240;53.626;55.886;2023-05-24T05:01:56;73765.72;;;-145.10;25.49
56334;BME280;42240;53.626;55.886;2023-05-24T05:03:29;73793.38;;;-145.10;25.63
56334;BME280;42240;53.626;55.886;2023-05-24T05:05:03;73647.16;;;-145.10;25.30
56334;BME280;42240;53.626;55.886;2023-05-24T05:06:36;73611.59;;;-145.10;24.36
56334;BME280;42240;53.626;55.886;2023-05-24T05:08:13;73722.25;;;-145.10;25.25
56334;BME280;42240;53.626;55.886;2023-05-24T05:09:47;73674.81;;;-145.10;24.77
56334;BME280;42240;53.626;55.886;2023-05-24T05:11:20;73655.06;;;-145.10;24.72
56334;BME280;42240;53.626;55.886;2023-05-24T05:12:54;73710.38;;;-145.10;25.08
56334;BME280;42240;53.626;55.886;2023-05-24T05:14:27;73716.31;;;-145.10;25.51
56334;BME280;42240;53.626;55.886;2023-05-24T05:16:04;73732.13;;;-145.10;25.26
56334;BME280;42240;53.626;55.886;2023-05-24T05:17:37;73688.66;;;-145.10;25.14
56334;BME280;42240;53.626;55.886;2023-05-24T05:19:11;73641.22;;;-145.10;25.33
56334;BME280;42240;53.626;55.886;2023-05-24T05:20:44;73698.53;;;-145.10;25.29
56334;BME280;42240;53.626;55.886;2023-05-24T05:22:18;73599.72;;;-145.10;25.22
56334;BME280;42240;53.626;55.886;2023-05-24T05:23:51;73623.44;;;-145.10;24.94
56334;BME280;42240;53.626;55.886;2023-05-24T05:25:26;73690.63;;;-145.10;25.29
56334;BME280;42240;53.626;55.886;2023-05-24T05:27:00;73613.56;;;-145.10;25.02
56334;BME280;42240;53.626;55.886;2023-05-24T05:28:34;73664.94;;;-145.10;24.62
56334;BME280;42240;53.626;55.886;2023-05-24T05:30:07;73702.47;;;-145.10;24.43
56334;BME280;42240;53.626;55.886;2023-05-24T05:31:41;73787.44;;;-145.10;25.39
56334;BME280;42240;53.626;55.886;2023-05-24T05:33:14;73738.06;;;-145.10;25.21
56334;BME280;42240;53.626;55.886;2023-05-24T05:34:48;73666.91;;;-145.10;24.23
56334;BME280;42240;53.626;55.886;2023-05-24T05:36:21;73560.22;;;-145.10;23.34
56334;BME280;42240;53.626;55.886;2023-05-24T05:37:55;73611.59;;;-145.10;23.44
56334;BME280;42240;53.626;55.886;2023-05-24T05:39:28;73572.06;;;-145.10;23.52
56334;BME280;42240;53.626;55.886;2023-05-24T05:41:03;73562.19;;;-145.10;23.66
56334;BME280;42240;53.626;55.886;2023-05-24T05:42:37;73694.59;;;-145.10;23.92
56334;BME280;42240;53.626;55.886;2023-05-24T05:44:11;73688.66;;;-145.10;24.59
56334;BME280;42240;53.626;55.886;2023-05-24T05:45:45;73591.84;;;-145.10;23.92
56334;BME280;42240;53.626;55.886;2023-05-24T05:47:18;73552.31;;;-145.10;24.62
56334;BME280;42240;53.626;55.886;2023-05-24T05:48:52;73502.91;;;-145.10;23.59
56334;BME280;42240;53.626;55.886;2023-05-24T05:50:25;73589.84;;;-145.10;23.66
56334;BME280;42240;53.626;55.886;2023-05-24T05:51:58;73568.13;;;-145.10;23.32
56334;BME280;42240;53.626;55.886;2023-05-24T05:53:33;73595.78;;;-145.10;23.72
56334;BME280;42240;53.626;55.886;2023-05-24T05:55:07;73568.13;;;-145.10;23.58
56334;BME280;42240;53.626;55.886;2023-05-24T05:56:41;73508.84;;;-145.10;23.47
56334;BME280;42240;53.626;55.886;2023-05-24T05:58:18;73548.38;;;-145.10;23.60
56334;BME280;42240;53.626;55.886;2023-05-24T05:59:51;73540.47;;;-145.10;23.69
56334;BME280;42240;53.626;55.886;2023-05-24T06:01:24;73635.31;;;-145.10;24.34
56334;BME280;42240;53.626;55.886;2023-05-24T06:02:57;73706.44;;;-145.10;23.75
56334;BME280;42240;53.626;55.886;2023-05-24T06:04:31;73623.44;;;-145.10;23.18
56334;BME280;42240;53.626;55.886;2023-05-24T06:06:04;73734.09;;;-145.10;23.72
56334;BME280;42240;53.626;55.886;2023-05-24T06:07:38;73635.31;;;-145.10;24.33
56334;BME280;42240;53.626;55.886;2023-05-24T06:09:11;73619.50;;;-145.10;23.24
56334;BME280;42240;53.626;55.886;2023-05-24T06:10:44;73532.56;;;-145.10;23.06
56334;BME280;42240;53.626;55.886;2023-05-24T06:12:17;73714.34;;;-145.10;23.00
56334;BME280;42240;53.626;55.886;2023-05-24T06:13:50;73753.84;;;-145.10;23.63
56334;BME280;42240;53.626;55.886;2023-05-24T06:15:24;73662.97;;;-145.10;23.40
56334;BME280;42240;53.626;55.886;2023-05-24T06:16:58;73668.88;;;-145.10;23.28
56334;BME280;42240;53.626;55.886;2023-05-24T06:18:32;73670.88;;;-145.10;23.76
56334;BME280;42240;53.626;55.886;2023-05-24T06:20:10;73672.84;;;-145.10;22.98
56334;BME280;42240;53.626;55.886;2023-05-24T06:21:47;73704.47;;;-145.10;23.62
56334;BME280;42240;53.626;55.886;2023-05-24T06:23:22;73680.75;;;-145.10;23.54
56334;BME280;42240;53.626;55.886;2023-05-24T06:24:55;73712.38;;;-145.10;24.28
56334;BME280;42240;53.626;55.886;2023-05-24T06:26:29;73668.88;;;-145.10;23.59
56334;BME280;42240;53.626;55.886;2023-05-24T06:28:03;73718.28;;;-145.10;24.26
56334;BME280;42240;53.626;55.886;2023-05-24T06:29:36;73736.06;;;-145.10;23.63
56334;BME280;42240;53.626;55.886;2023-05-24T06:31:10;73653.09;;;-145.10;23.33
56334;BME280;42240;53.626;55.886;2023-05-24T06:32:43;73807.22;;;-145.10;23.54
56334;BME280;42240;53.626;55.886;2023-05-24T06:34:17;73947.50;;;-145.10;23.72
56334;BME280;42240;53.626;55.886;2023-05-24T06:35:53;73955.41;;;-145.10;24.29
56334;BME280;42240;53.626;55.886;2023-05-24T06:37:26;73937.63;;;-145.10;24.36
56334;BME280;42240;53.626;55.886;2023-05-24T06:39:03;73852.66;;;-145.10;24.47
56334;BME280;42240;53.626;55.886;2023-05-24T06:40:36;73870.44;;;-145.10;23.93
56334;BME280;42240;53.626;55.886;2023-05-24T06:42:10;73935.66;;;-145.10;23.96
56334;BME280;42240;53.626;55.886;2023-05-24T06:43:43;73967.28;;;-145.10;24.24
56334;BME280;42240;53.626;55.886;2023-05-24T06:45:16;74034.47;;;-145.10;23.54
56334;BME280;42240;53.626;55.886;2023-05-24T06:46:49;73955.41;;;-145.10;24.30
56334;BME280;42240;53.626;55.886;2023-05-24T06:48:23;73959.38;;;-145.10;24.54
56334;BME280;42240;53.626;55.886;2023-05-24T06:49:56;73927.75;;;-145.10;23.94
56334;BME280;42240;53.626;55.886;2023-05-24T06:51:30;73927.75;;;-145.10;23.91
56334;BME280;42240;53.626;55.886;2023-05-24T06:53:05;73971.22;;;-145.10;23.56
56334;BME280;42240;53.626;55.886;2023-05-24T06:54:38;73963.31;;;-145.10;24.68
56334;BME280;42240;53.626;55.886;2023-05-24T06:56:12;74077.94;;;-145.10;24.26
56334;BME280;42240;53.626;55.886;2023-05-24T06:57:45;74129.31;;;-145.10;24.09
56334;BME280;42240;53.626;55.886;2023-05-24T06:59:18;74113.50;;;-145.10;24.31
56334;BME280;42240;53.626;55.886;2023-05-24T07:00:52;74081.88;;;-145.10;24.46
56334;BME280;42240;53.626;55.886;2023-05-24T07:02:26;74068.06;;;-145.10;24.17
56334;BME280;42240;53.626;55.886;2023-05-24T07:04:00;74038.41;;;-145.10;24.45
56334;BME280;42240;53.626;55.886;2023-05-24T07:05:34;74046.31;;;-145.10;24.26
56334;BME280;42240;53.626;55.886;2023-05-24T07:07:08;74064.09;;;-145.10;24.27
56334;BME280;42240;53.626;55.886;2023-05-24T07:08:44;74111.53;;;-145.10;24.43
56334;BME280;42240;53.626;55.886;2023-05-24T07:10:18;74133.28;;;-145.10;23.92
56334;BME280;42240;53.626;55.886;2023-05-24T07:11:51;74127.34;;;-145.10;23.89
56334;BME280;42240;53.626;55.886;2023-05-24T07:13:25;74180.69;;;-145.10;23.59
56334;BME280;42240;53.626;55.886;2023-05-24T07:14:59;74214.28;;;-145.10;24.22
56334;BME280;42240;53.626;55.886;2023-05-24T07:16:37;74232.06;;;-145.10;24.66
56334;BME280;42240;53.626;55.886;2023-05-24T07:18:12;74184.66;;;-145.10;24.79
56334;BME280;42240;53.626;55.886;2023-05-24T07:19:45;74121.41;;;-145.10;24.42
56334;BME280;42240;53.626;55.886;2023-05-24T07:21:18;74149.06;;;-145.10;24.35
56334;BME280;42240;53.626;55.886;2023-05-24T07:22:52;74125.38;;;-145.10;24.84
56334;BME280;42240;53.626;55.886;2023-05-24T07:24:26;74176.75;;;-145.10;24.68
56334;BME280;42240;53.626;55.886;2023-05-24T07:26:00;74141.16;;;-145.10;24.57
56334;BME280;42240;53.626;55.886;2023-05-24T07:27:35;74070.03;;;-145.10;23.99
56334;BME280;42240;53.626;55.886;2023-05-24T07:29:08;74042.38;;;-145.10;23.90
56334;BME280;42240;53.626;55.886;2023-05-24T07:30:42;74030.50;;;-145.10;24.51
56334;BME280;42240;53.626;55.886;2023-05-24T07:32:15;74020.63;;;-145.10;23.66
56334;BME280;42240;53.626;55.886;2023-05-24T07:33:48;74077.94;;;-145.10;24.07
56334;BME280;42240;53.626;55.886;2023-05-24T07:35:22;74034.47;;;-145.10;24.30
56334;BME280;42240;53.626;55.886;2023-05-24T07:36:56;74113.50;;;-145.10;23.70
56334;BME280;42240;53.626;55.886;2023-05-24T07:38:32;74125.38;;;-145.10;23.81
56334;BME280;42240;53.626;55.886;2023-05-24T07:40:07;74109.56;;;-145.10;23.87
56334;BME280;42240;53.626;55.886;2023-05-24T07:41:43;74137.22;;;-145.10;23.42
56334;BME280;42240;53.626;55.886;2023-05-24T07:43:17;74133.28;;;-145.10;23.88
56334;BME280;42240;53.626;55.886;2023-05-24T07:44:51;74156.97;;;-145.10;23.15
56334;BME280;42240;53.626;55.886;2023-05-24T07:46:24;74129.31;;;-145.10;24.11
56334;BME280;42240;53.626;55.886;2023-05-24T07:47:58;74070.03;;;-145.10;23.15
56334;BME280;42240;53.626;55.886;2023-05-24T07:49:35;74038.41;;;-145.10;23.08
56334;BME280;42240;53.626;55.886;2023-05-24T07:51:08;73971.22;;;-145.10;22.01
56334;BME280;42240;53.626;55.886;2023-05-24T07:52:41;73933.69;;;-145.10;22.54
56334;BME280;42240;53.626;55.886;2023-05-24T07:54:14;73925.78;;;-145.10;21.92
56334;BME280;42240;53.626;55.886;2023-05-24T07:55:48;73870.44;;;-145.10;22.19
56334;BME280;42240;53.626;55.886;2023-05-24T07:57:21;73927.75;;;-145.10;21.94
56334;BME280;42240;53.626;55.886;2023-05-24T07:58:54;73963.31;;;-145.10;22.54
56334;BME280;42240;53.626;55.886;2023-05-24T08:00:35;73979.13;;;-145.10;23.24
56334;BME280;42240;53.626;55.886;2023-05-24T08:02:08;73981.09;;;-145.10;23.74
56334;BME280;42240;53.626;55.886;2023-05-24T08:03:44;73959.38;;;-145.10;23.56
56334;BME280;42240;53.626;55.886;2023-05-24T08:05:17;73945.53;;;-145.10;23.51
56334;BME280;42240;53.626;55.886;2023-05-24T08:06:51;73927.75;;;-145.10;23.75
56334;BME280;42240;53.626;55.886;2023-05-24T08:08:25;73908.00;;;-145.10;23.47
56334;BME280;42240;53.626;55.886;2023-05-24T08:09:58;73904.03;;;-145.10;23.24
56334;BME280;42240;53.626;55.886;2023-05-24T08:11:32;73884.28;;;-145.10;23.00
56334;BME280;42240;53.626;55.886;2023-05-24T08:13:05;73890.19;;;-145.10;23.09